Terminal Aerodrome Forecast
Issued by NWS Charleston, WV

Current Version | Previous Version | Text Only | Print | Product List | Glossary Off
Versions: 1 2 3 4 5 6 7 8 9 10 11 12 13 14 15 16 17 18 19 20 21 22 23 24

000
FTUS41 KRLX 241120
TAFEKN
TAF
KEKN 241120Z 2412/2512 00000KT 3SM BR SCT002 SCT060
     FM241300 24005KT P6SM FEW070
     FM242200 21003KT P6SM BKN070
     FM250300 00000KT P6SM BKN100
     FM250800 00000KT 2SM BR BKN080=

USA.gov is the U.S. government's official web portal to all federal, state and local government web resources and services.